createdAt,value
2018-04-02T00:00:41.862Z,30.4
2018-04-02T00:01:30.700Z,30.3
2018-04-02T00:02:21.524Z,30.1
2018-04-02T00:03:12.554Z,30
2018-04-02T00:04:02.442Z,29.9
2018-04-02T00:04:52.963Z,29.7
2018-04-02T00:05:41.444Z,28.6
2018-04-02T00:06:32.321Z,27.6
2018-04-02T00:07:21.333Z,27.1
2018-04-02T00:08:12.743Z,26.9
2018-04-02T00:09:02.258Z,26.6
2018-04-02T00:09:53.053Z,26.4
2018-04-02T00:10:43.491Z,26.3
2018-04-02T00:11:33.280Z,26.2
2018-04-02T00:12:23.183Z,26.1
2018-04-02T00:13:13.553Z,26
2018-04-02T00:14:02.880Z,25.9
2018-04-02T00:14:52.521Z,25.7
2018-04-02T00:15:43.237Z,25.9
2018-04-02T00:16:33.865Z,26.1
2018-04-02T00:17:23.676Z,26.4
2018-04-02T00:18:13.356Z,26.7
2018-04-02T00:19:02.545Z,27
2018-04-02T00:19:53.414Z,27.4
2018-04-02T00:20:43.188Z,27.8
2018-04-02T00:21:33.223Z,28.1
2018-04-02T00:22:24.203Z,28.4
2018-04-02T00:23:14.028Z,28.7
2018-04-02T00:24:03.744Z,28.9
2018-04-02T00:24:53.380Z,29.3
2018-04-02T00:25:44.053Z,29.5
2018-04-02T00:26:33.670Z,29.8
2018-04-02T00:27:23.556Z,30
2018-04-02T00:28:14.292Z,30.3
2018-04-02T00:29:04.202Z,30.5
2018-04-02T00:29:54.056Z,30.7
2018-04-02T00:30:43.465Z,30.9
2018-04-02T00:31:34.770Z,31.1
2018-04-02T00:32:23.932Z,31.3
2018-04-02T00:33:14.487Z,31.1
2018-04-02T00:34:04.822Z,30.9
2018-04-02T00:34:54.414Z,30.8
2018-04-02T00:35:45.399Z,30.6
2018-04-02T00:36:35.456Z,30.5
2018-04-02T00:37:26.083Z,30.3
2018-04-02T00:38:16.139Z,30.2
2018-04-02T00:39:06.545Z,30.1
2018-04-02T00:39:55.561Z,29.9
2018-04-02T00:40:45.475Z,29.8
2018-04-02T00:41:35.379Z,29.7
2018-04-02T00:42:25.751Z,28.2
2018-04-02T00:43:16.069Z,27.6
2018-04-02T00:44:06.137Z,27.2
2018-04-02T00:44:56.174Z,26.9
2018-04-02T00:45:46.041Z,26.7
2018-04-02T00:46:36.616Z,26.6
2018-04-02T00:47:27.132Z,26.4
2018-04-02T00:48:16.915Z,26.3
2018-04-02T00:49:06.976Z,26.2
2018-04-02T00:49:56.695Z,26.1
2018-04-02T00:50:47.405Z,26
2018-04-02T00:51:36.636Z,25.9
2018-04-02T00:52:26.876Z,25.8
2018-04-02T00:53:17.552Z,26.1
2018-04-02T00:54:07.619Z,26.3
2018-04-02T00:54:57.971Z,26.6
2018-04-02T00:55:47.178Z,26.9
2018-04-02T00:56:37.456Z,27.3
2018-04-02T00:57:25.603Z,27.6
2018-04-02T00:58:16.613Z,27.9
2018-04-02T00:59:07.165Z,28.3
2018-04-02T00:59:56.965Z,28.6
2018-04-02T01:00:46.498Z,28.9
2018-04-02T01:01:36.493Z,29.2
2018-04-02T01:02:26.285Z,29.4
2018-04-02T01:03:17.162Z,29.7
2018-04-02T01:04:05.736Z,30
2018-04-02T01:04:56.530Z,30.2
2018-04-02T01:05:46.724Z,30.4
2018-04-02T01:06:37.480Z,30.7
2018-04-02T01:07:26.313Z,30.9
2018-04-02T01:08:17.294Z,31.1
2018-04-02T01:09:07.110Z,31.3
2018-04-02T01:09:57.805Z,31.1
2018-04-02T01:10:47.872Z,31
2018-04-02T01:11:37.439Z,30.8
2018-04-02T01:12:28.363Z,30.7
2018-04-02T01:13:17.431Z,30.6
2018-04-02T01:14:07.248Z,30.4
2018-04-02T01:14:57.205Z,30.3
2018-04-02T01:15:48.293Z,30.1
2018-04-02T01:16:37.912Z,30
2018-04-02T01:17:27.582Z,29.9
2018-04-02T01:18:17.724Z,29.7
2018-04-02T01:19:08.404Z,29.4
2018-04-02T01:19:58.233Z,28.1
2018-04-02T01:20:47.667Z,27.5
2018-04-02T01:21:37.987Z,27.1
2018-04-02T01:22:28.841Z,26.9
2018-04-02T01:23:17.639Z,26.8
2018-04-02T01:24:07.264Z,26.6
2018-04-02T01:24:58.462Z,26.4
2018-04-02T01:25:48.879Z,26.3
2018-04-02T01:26:38.129Z,26.3
2018-04-02T01:27:27.742Z,26.1
2018-04-02T01:28:17.391Z,26.1
2018-04-02T01:29:08.463Z,25.9
2018-04-02T01:29:58.779Z,25.9
2018-04-02T01:30:48.929Z,26.3
2018-04-02T01:31:38.298Z,26.4
2018-04-02T01:32:29.114Z,26.8
2018-04-02T01:33:17.990Z,27.1
2018-04-02T01:34:07.926Z,27.4
2018-04-02T01:34:59.702Z,27.8
2018-04-02T01:35:49.244Z,28.1
2018-04-02T01:36:39.328Z,28.4
2018-04-02T01:37:28.748Z,28.7
2018-04-02T01:38:18.356Z,29
2018-04-02T01:39:09.044Z,29.3
2018-04-02T01:39:59.483Z,29.5
2018-04-02T01:40:49.820Z,29.8
2018-04-02T01:41:39.868Z,30
2018-04-02T01:42:30.315Z,30.2
2018-04-02T01:43:20.113Z,30.4
2018-04-02T01:44:09.718Z,30.7
2018-04-02T01:44:59.377Z,30.9
2018-04-02T01:45:50.021Z,31.1
2018-04-02T01:46:40.101Z,31.3
2018-04-02T01:47:29.172Z,31.1
2018-04-02T01:48:21.275Z,31
2018-04-02T01:49:11.308Z,30.8
2018-04-02T01:50:01.733Z,30.7
2018-04-02T01:50:51.499Z,30.6
2018-04-02T01:51:41.503Z,30.4
2018-04-02T01:52:31.809Z,30.3
2018-04-02T01:53:21.375Z,30.1
2018-04-02T01:54:11.200Z,29.9
2018-04-02T01:55:00.243Z,29.8
2018-04-02T01:55:51.041Z,29.7
2018-04-02T01:56:41.594Z,29.1
2018-04-02T01:57:29.525Z,28
2018-04-02T01:58:20.656Z,27.5
2018-04-02T01:59:09.684Z,27.2
2018-04-02T02:00:00.874Z,26.9
2018-04-02T02:00:49.654Z,26.8
2018-04-02T02:01:41.510Z,26.6
2018-04-02T02:02:30.919Z,26.5
2018-04-02T02:03:21.212Z,26.4
2018-04-02T02:04:10.403Z,26.3
2018-04-02T02:05:00.397Z,26.2
2018-04-02T02:05:50.134Z,26.1
2018-04-02T02:06:42.436Z,25.9
2018-04-02T02:07:31.009Z,25.9
2018-04-02T02:08:20.975Z,26.1
2018-04-02T02:09:11.262Z,26.4
2018-04-02T02:10:00.604Z,26.6
2018-04-02T02:10:52.343Z,26.9
2018-04-02T02:11:40.554Z,27.3
2018-04-02T02:12:31.539Z,27.6
2018-04-02T02:13:21.659Z,27.9
2018-04-02T02:14:11.135Z,28.3
2018-04-02T02:15:01.108Z,28.6
2018-04-02T02:15:51.627Z,28.9
2018-04-02T02:16:41.508Z,29.1
2018-04-02T02:17:31.335Z,29.4
2018-04-02T02:18:21.352Z,29.7
2018-04-02T02:19:11.867Z,29.9
2018-04-02T02:20:02.629Z,30.2
2018-04-02T02:20:53.064Z,30.4
2018-04-02T02:21:42.619Z,30.7
2018-04-02T02:22:32.907Z,30.9
2018-04-02T02:23:22.507Z,31.1
2018-04-02T02:24:11.883Z,31.3
2018-04-02T02:25:03.309Z,31.2
2018-04-02T02:25:53.480Z,31.1
2018-04-02T02:26:41.772Z,30.9
2018-04-02T02:27:32.757Z,30.8
2018-04-02T02:28:22.910Z,30.6
2018-04-02T02:29:12.045Z,30.4
2018-04-02T02:30:01.983Z,30.3
2018-04-02T02:30:52.866Z,30.2
2018-04-02T02:31:43.025Z,30
2018-04-02T02:32:32.460Z,29.9
2018-04-02T02:33:23.686Z,29.8
2018-04-02T02:34:13.318Z,28.9
2018-04-02T02:35:03.697Z,28.1
2018-04-02T02:35:52.726Z,27.5
2018-04-02T02:36:43.489Z,27.2
2018-04-02T02:37:33.923Z,27
2018-04-02T02:38:24.175Z,26.8
2018-04-02T02:39:12.779Z,26.7
2018-04-02T02:40:04.738Z,26.6
2018-04-02T02:40:53.799Z,26.4
2018-04-02T02:41:44.546Z,26.3
2018-04-02T02:42:33.651Z,26.3
2018-04-02T02:43:24.532Z,26.1
2018-04-02T02:44:14.291Z,26.1
2018-04-02T02:45:04.500Z,25.9
2018-04-02T02:45:54.218Z,26.1
2018-04-02T02:46:43.606Z,26.4
2018-04-02T02:47:35.625Z,26.6
2018-04-02T02:48:24.589Z,26.9
2018-04-02T02:49:14.224Z,27.3
2018-04-02T02:50:04.902Z,27.6
2018-04-02T02:50:56.153Z,27.9
2018-04-02T02:51:45.653Z,28.3
2018-04-02T02:52:36.609Z,28.6
2018-04-02T02:53:25.453Z,28.8
2018-04-02T02:54:16.355Z,28.6
2018-04-02T02:55:05.905Z,28.4
2018-04-02T02:56:46.754Z,26.9
2018-04-02T02:57:36.602Z,26.3
2018-04-02T02:58:25.838Z,26.3
2018-04-02T02:59:16.444Z,26.7
2018-04-02T03:00:06.260Z,27
2018-04-02T03:00:56.550Z,27.3
2018-04-02T03:01:46.629Z,27.6
2018-04-02T03:03:27.623Z,28.2
2018-04-02T03:04:16.203Z,28.5
2018-04-02T03:05:05.482Z,28.8
2018-04-02T03:05:54.737Z,29.1
2018-04-02T03:06:45.882Z,29.4
2018-04-02T03:07:35.704Z,29.8
2018-04-02T03:08:26.014Z,30
2018-04-02T03:09:15.984Z,30.3
2018-04-02T03:10:06.473Z,30.6
2018-04-02T03:10:54.270Z,30.8
2018-04-02T03:11:45.530Z,31
2018-04-02T03:12:34.713Z,31.3
2018-04-02T03:13:26.653Z,31.2
2018-04-02T03:14:16.383Z,31.1
2018-04-02T03:15:05.977Z,30.9
2018-04-02T03:15:56.726Z,30.8
2018-04-02T03:16:46.769Z,30.6
2018-04-02T03:17:36.407Z,30.4
2018-04-02T03:18:25.734Z,30.3
2018-04-02T03:19:15.195Z,30.2
2018-04-02T03:20:06.727Z,30
2018-04-02T03:20:56.692Z,29.9
2018-04-02T03:21:45.647Z,29.8
2018-04-02T03:22:37.525Z,29.6
2018-04-02T03:23:27.041Z,28.4
2018-04-02T03:24:18.055Z,27.8
2018-04-02T03:25:22.206Z,27.4
2018-04-02T03:25:56.627Z,27.1
2018-04-02T03:26:46.802Z,26.9
2018-04-02T03:27:36.732Z,26.8
2018-04-02T03:28:26.557Z,26.6
2018-04-02T03:29:17.100Z,26.5
2018-04-02T03:30:06.861Z,26.4
2018-04-02T03:30:57.278Z,26.3
2018-04-02T03:31:48.436Z,26.2
2018-04-02T03:32:37.853Z,26.1
2018-04-02T03:33:27.393Z,25.9
2018-04-02T03:34:16.795Z,25.9
2018-04-02T03:35:08.039Z,26.3
2018-04-02T03:35:58.587Z,26.5
2018-04-02T03:36:48.338Z,26.8
2018-04-02T03:37:38.366Z,27.1
2018-04-02T03:38:27.339Z,27.4
2018-04-02T03:40:08.956Z,28.2
2018-04-02T03:40:57.889Z,28.5
2018-04-02T03:41:47.806Z,28.8
2018-04-02T03:42:37.380Z,29.1
2018-04-02T03:43:28.494Z,29.4
2018-04-02T03:44:18.666Z,29.8
2018-04-02T03:45:07.536Z,30
2018-04-02T03:45:58.428Z,30.3
2018-04-02T03:46:47.666Z,30.5
2018-04-02T03:47:37.340Z,30.8
2018-04-02T03:48:30.347Z,31
2018-04-02T03:49:19.474Z,31.3
2018-04-02T03:50:09.561Z,31.2
2018-04-02T03:50:59.899Z,31.1
2018-04-02T03:51:49.978Z,30.9
2018-04-02T03:52:40.303Z,30.8
2018-04-02T03:53:30.067Z,30.6
2018-04-02T03:54:20.733Z,30.5
2018-04-02T03:55:10.522Z,30.3
2018-04-02T03:56:00.563Z,30.2
2018-04-02T03:56:50.965Z,30.1
2018-04-02T03:57:41.293Z,29.9
2018-04-02T03:58:30.473Z,29.8
2018-04-02T03:59:19.177Z,29.2
2018-04-02T04:00:11.447Z,28.2
2018-04-02T04:01:00.325Z,27.6
2018-04-02T04:01:51.310Z,27.3
2018-04-02T04:02:40.187Z,27.1
2018-04-02T04:03:31.107Z,26.9
2018-04-02T04:04:21.123Z,26.8
2018-04-02T04:05:10.949Z,26.6
2018-04-02T04:06:00.429Z,26.5
2018-04-02T04:06:51.595Z,26.4
2018-04-02T04:07:40.013Z,26.3
2018-04-02T04:08:29.807Z,26.2
2018-04-02T04:09:19.311Z,26.1
2018-04-02T04:10:10.024Z,25.9
2018-04-02T04:11:00.684Z,26.1
2018-04-02T04:11:50.592Z,26.5
2018-04-02T04:12:41.054Z,26.8
2018-04-02T04:13:30.594Z,27.1
2018-04-02T04:14:20.861Z,27.4
2018-04-02T04:15:10.504Z,27.7
2018-04-02T04:16:00.299Z,28.1
2018-04-02T04:16:50.829Z,28.4
2018-04-02T04:17:41.323Z,28.8
2018-04-02T04:18:31.044Z,29.1
2018-04-02T04:19:21.086Z,29.3
2018-04-02T04:20:10.858Z,29.6
2018-04-02T04:21:00.422Z,29.9
2018-04-02T04:21:50.429Z,30.2
2018-04-02T04:22:40.743Z,30.5
2018-04-02T04:23:31.148Z,30.8
2018-04-02T04:24:21.421Z,31
2018-04-02T04:25:10.538Z,31.3
2018-04-02T04:26:00.331Z,31.2
2018-04-02T04:26:50.790Z,31
2018-04-02T04:27:42.465Z,30.8
2018-04-02T04:28:31.079Z,30.7
2018-04-02T04:29:20.673Z,30.6
2018-04-02T04:30:11.638Z,30.4
2018-04-02T04:31:01.450Z,30.3
2018-04-02T04:31:52.657Z,30.1
2018-04-02T04:32:41.495Z,30
2018-04-02T04:33:31.343Z,29.9
2018-04-02T04:34:21.839Z,29.7
2018-04-02T04:35:10.477Z,28.5
2018-04-02T04:36:52.182Z,27.4
2018-04-02T04:37:41.272Z,27.1
2018-04-02T04:38:31.424Z,26.9
2018-04-02T04:39:22.035Z,26.8
2018-04-02T04:40:13.080Z,26.6
2018-04-02T04:41:02.295Z,26.6
2018-04-02T04:41:51.469Z,26.4
2018-04-02T04:42:42.895Z,26.3
2018-04-02T04:43:32.352Z,26.2
2018-04-02T04:44:22.514Z,26.1
2018-04-02T04:45:11.811Z,26
2018-04-02T04:46:02.961Z,26
2018-04-02T04:46:52.489Z,26.5
2018-04-02T04:47:42.602Z,26.6
2018-04-02T04:48:32.819Z,26.9
2018-04-02T04:49:23.029Z,27.3
2018-04-02T04:50:12.252Z,27.6
2018-04-02T04:51:03.477Z,27.9
2018-04-02T04:51:53.437Z,28.3
2018-04-02T04:52:43.024Z,28.7
2018-04-02T04:53:33.979Z,29
2018-04-02T04:54:23.056Z,29.3
2018-04-02T04:55:13.629Z,29.6
2018-04-02T04:56:03.474Z,29.9
2018-04-02T04:56:53.725Z,30.3
2018-04-02T04:57:43.800Z,30.6
2018-04-02T04:58:33.811Z,30.8
2018-04-02T04:59:23.636Z,31.1
2018-04-02T05:00:14.184Z,31.3
2018-04-02T05:01:04.151Z,31.1
2018-04-02T05:01:53.613Z,30.9
2018-04-02T05:02:44.532Z,30.8
2018-04-02T05:03:34.333Z,30.6
2018-04-02T05:04:24.199Z,30.5
2018-04-02T05:05:14.945Z,30.4
2018-04-02T05:06:04.341Z,30.2
2018-04-02T05:06:54.343Z,30.1
2018-04-02T05:07:44.646Z,29.9
2018-04-02T05:08:34.503Z,29.8
2018-04-02T05:09:25.612Z,29.6
2018-04-02T05:10:14.613Z,29.5
2018-04-02T05:11:04.174Z,29.4
2018-04-02T05:11:54.705Z,29.3
2018-04-02T05:12:45.332Z,29.1
2018-04-02T05:13:34.332Z,29
2018-04-02T05:14:25.222Z,28.9
2018-04-02T05:15:13.867Z,28.8
2018-04-02T05:16:05.682Z,28.7
2018-04-02T05:16:55.248Z,28.5
2018-04-02T05:17:44.447Z,28.4
2018-04-02T05:18:35.313Z,28.3
2018-04-02T05:19:25.675Z,28.2
2018-04-02T05:20:15.195Z,28.1
2018-04-02T05:21:05.895Z,28
2018-04-02T05:21:55.926Z,27.9
2018-04-02T05:22:45.182Z,27.8
2018-04-02T05:23:35.054Z,27.6
2018-04-02T05:24:26.035Z,27.5
2018-04-02T05:25:15.192Z,27.4
2018-04-02T05:26:05.122Z,26.5
2018-04-02T05:26:56.317Z,26.1
2018-04-02T05:27:47.750Z,26.4
2018-04-02T05:28:37.269Z,26.6
2018-04-02T05:29:27.589Z,26.8
2018-04-02T05:30:17.942Z,27.2
2018-04-02T05:31:07.384Z,27.5
2018-04-02T05:32:47.582Z,28.2
2018-04-02T05:33:36.799Z,28.5
2018-04-02T05:34:27.754Z,28.9
2018-04-02T05:35:18.071Z,29.2
2018-04-02T05:36:07.545Z,29.5
2018-04-02T05:36:57.907Z,29.8
2018-04-02T05:37:46.487Z,30.1
2018-04-02T05:38:38.301Z,30.4
2018-04-02T05:39:27.294Z,30.7
2018-04-02T05:40:16.553Z,31
2018-04-02T05:41:06.234Z,31.3
2018-04-02T05:41:56.445Z,31.1
2018-04-02T05:42:46.871Z,31
2018-04-02T05:43:37.196Z,30.9
2018-04-02T05:44:28.515Z,30.7
2018-04-02T05:45:17.015Z,30.6
2018-04-02T05:46:07.348Z,30.4
2018-04-02T05:46:57.354Z,30.3
2018-04-02T05:47:46.742Z,30.1
2018-04-02T05:48:36.695Z,30
2018-04-02T05:49:27.510Z,29.8
2018-04-02T05:50:17.209Z,29.7
2018-04-02T05:51:58.602Z,29.4
2018-04-02T05:52:47.063Z,29.3
2018-04-02T05:53:37.826Z,29.2
2018-04-02T05:54:27.092Z,29.1
2018-04-02T05:55:17.757Z,28.9
2018-04-02T05:56:07.480Z,28.8
2018-04-02T05:56:58.113Z,28.7
2018-04-02T05:57:47.534Z,28.6
2018-04-02T05:58:37.806Z,28.4
2018-04-02T05:59:29.242Z,28.3
2018-04-02T06:00:17.828Z,28.2
2018-04-02T06:01:08.317Z,28.1
2018-04-02T06:01:59.021Z,28
2018-04-02T06:02:48.699Z,27.9
2018-04-02T06:03:38.751Z,27.8
2018-04-02T06:04:29.504Z,27.6
2018-04-02T06:05:18.778Z,27.5
2018-04-02T06:06:08.560Z,27.4
2018-04-02T06:06:59.091Z,27.3
2018-04-02T06:07:48.649Z,26.6
2018-04-02T06:08:38.524Z,26
2018-04-02T06:09:28.707Z,26.1
2018-04-02T06:10:18.734Z,26.3
2018-04-02T06:11:09.593Z,26.6
2018-04-02T06:11:58.480Z,26.9
2018-04-02T06:12:48.365Z,27.3
2018-04-02T06:13:38.494Z,27.6
2018-04-02T06:14:28.952Z,28.1
2018-04-02T06:15:19.980Z,28.4
2018-04-02T06:16:08.710Z,28.8
2018-04-02T06:16:59.865Z,29.1
2018-04-02T06:17:48.808Z,29.5
2018-04-02T06:18:40.444Z,29.8
2018-04-02T06:19:29.573Z,30.2
2018-04-02T06:20:18.384Z,30.5
2018-04-02T06:21:09.238Z,30.8
2018-04-02T06:22:00.267Z,31.1
2018-04-02T06:22:48.959Z,31.3
2018-04-02T06:23:39.908Z,31.1
2018-04-02T06:24:30.968Z,30.9
2018-04-02T06:25:20.248Z,30.8
2018-04-02T06:26:10.414Z,30.7
2018-04-02T06:27:00.040Z,30.5
2018-04-02T06:27:50.317Z,30.4
2018-04-02T06:28:40.267Z,30.3
2018-04-02T06:29:30.051Z,30.1
2018-04-02T06:30:20.272Z,29.9
2018-04-02T06:31:11.142Z,29.8
2018-04-02T06:32:00.607Z,29.7
2018-04-02T06:32:49.492Z,29.5
2018-04-02T06:33:40.520Z,29.4
2018-04-02T06:34:30.975Z,29.3
2018-04-02T06:35:20.478Z,29.1
2018-04-02T06:36:10.500Z,29
2018-04-02T06:37:01.036Z,28.9
2018-04-02T06:37:51.325Z,28.8
2018-04-02T06:38:40.699Z,28.6
2018-04-02T06:39:31.102Z,28.5
2018-04-02T06:40:21.209Z,28.4
2018-04-02T06:41:10.502Z,28.3
2018-04-02T06:42:02.119Z,28.2
2018-04-02T06:42:50.649Z,28.1
2018-04-02T06:43:41.111Z,27.9
2018-04-02T06:45:20.984Z,27.7
2018-04-02T06:46:11.348Z,27.6
2018-04-02T06:47:01.436Z,27.5
2018-04-02T06:47:51.472Z,27.4
2018-04-02T06:48:42.723Z,27.3
2018-04-02T06:49:31.786Z,27.2
2018-04-02T06:50:22.504Z,27.1
2018-04-02T06:51:11.611Z,26.9
2018-04-02T06:52:02.260Z,26.8
2018-04-02T06:52:52.160Z,26.7
2018-04-02T06:53:41.579Z,26.6
2018-04-02T06:54:32.711Z,26.5
2018-04-02T06:55:22.455Z,26.4
2018-04-02T06:56:11.764Z,26.3
2018-04-02T06:57:02.149Z,26.2
2018-04-02T06:57:52.964Z,26.1
2018-04-02T06:58:42.326Z,25.9
2018-04-02T06:59:32.630Z,25.9
2018-04-02T07:00:22.373Z,25.8
2018-04-02T07:01:12.690Z,25.6
2018-04-02T07:02:03.080Z,25.6
2018-04-02T07:02:52.500Z,25.4
2018-04-02T07:03:42.281Z,25.4
2018-04-02T07:04:33.286Z,25.3
2018-04-02T07:05:23.460Z,25.1
2018-04-02T07:06:13.075Z,25.1
2018-04-02T07:07:02.764Z,24.9
2018-04-02T07:07:53.146Z,24.9
2018-04-02T07:08:43.127Z,24.8
2018-04-02T07:09:32.818Z,24.7
2018-04-02T07:10:23.836Z,24.6
2018-04-02T07:11:12.669Z,24.5
2018-04-02T07:12:02.894Z,24.4
2018-04-02T07:12:53.375Z,24.3
2018-04-02T07:13:42.999Z,24.2
2018-04-02T07:14:33.845Z,24.1
2018-04-02T07:15:24.323Z,24
2018-04-02T07:16:12.994Z,23.9
2018-04-02T07:17:02.688Z,23.8
2018-04-02T07:17:53.817Z,23.8
2018-04-02T07:18:44.375Z,23.6
2018-04-02T07:19:34.102Z,23.6
2018-04-02T07:20:23.780Z,23.5
2018-04-02T07:21:13.601Z,23.4
2018-04-02T07:22:02.809Z,23.3
2018-04-02T07:22:53.469Z,23.2
2018-04-02T07:23:44.804Z,23.1
2018-04-02T07:24:34.945Z,23.1
2018-04-02T07:25:24.643Z,22.9
2018-04-02T07:26:13.901Z,22.9
2018-04-02T07:27:04.552Z,22.8
2018-04-02T07:27:52.577Z,22.8
2018-04-02T07:28:44.981Z,22.6
2018-04-02T07:29:35.232Z,22.6
2018-04-02T07:30:23.641Z,22.5
2018-04-02T07:31:14.274Z,22.4
2018-04-02T07:32:04.914Z,22.3
2018-04-02T07:32:54.956Z,22.3
2018-04-02T07:33:44.316Z,22.2
2018-04-02T07:34:34.003Z,22.1
2018-04-02T07:35:24.511Z,22
2018-04-02T07:36:15.473Z,21.9
2018-04-02T07:37:05.323Z,21.9
2018-04-02T07:37:54.767Z,21.8
2018-04-02T07:38:45.967Z,21.8
2018-04-02T07:39:36.252Z,21.6
2018-04-02T07:40:24.641Z,21.6
2018-04-02T07:41:14.890Z,21.5
2018-04-02T07:42:05.816Z,21.4
2018-04-02T07:42:55.380Z,21.4
2018-04-02T07:43:45.963Z,21.3
2018-04-02T07:44:35.885Z,21.3
2018-04-02T07:47:06.316Z,21.1
2018-04-02T07:47:55.149Z,20.9
2018-04-02T07:48:46.545Z,20.9
2018-04-02T07:49:36.161Z,20.8
2018-04-02T07:50:26.585Z,20.8
2018-04-02T07:51:15.920Z,20.7
2018-04-02T07:52:05.855Z,20.6
2018-04-02T07:52:56.122Z,20.6
2018-04-02T07:53:45.674Z,20.5
2018-04-02T07:54:36.742Z,20.4
2018-04-02T07:55:26.307Z,20.4
2018-04-02T07:56:16.202Z,20.3
2018-04-02T07:57:08.001Z,20.3
2018-04-02T07:57:57.240Z,20.2
2018-04-02T07:58:46.559Z,20.2
2018-04-02T07:59:36.739Z,20.1
2018-04-02T08:00:27.142Z,20
2018-04-02T08:01:17.242Z,20
2018-04-02T08:02:07.003Z,19.9
2018-04-02T08:02:57.995Z,19.9
2018-04-02T08:03:47.179Z,19.8
2018-04-02T08:04:36.901Z,19.8
2018-04-02T08:05:27.795Z,19.7
2018-04-02T08:06:16.862Z,19.6
2018-04-02T08:07:07.282Z,19.6
2018-04-02T08:07:58.054Z,19.5
2018-04-02T08:08:47.817Z,19.4
2018-04-02T08:09:37.406Z,19.4
2018-04-02T08:10:27.160Z,19.4
2018-04-02T08:11:19.223Z,19.3
2018-04-02T08:12:07.920Z,19.3
2018-04-02T08:12:57.104Z,19.2
2018-04-02T08:13:47.656Z,19.1
2018-04-02T08:14:37.967Z,19.1
2018-04-02T08:15:28.143Z,19.1
2018-04-02T08:16:18.205Z,19
2018-04-02T08:17:07.277Z,18.9
2018-04-02T08:17:58.904Z,18.9
2018-04-02T08:18:47.888Z,18.9
2018-04-02T08:19:39.078Z,18.8
2018-04-02T08:20:28.692Z,18.8
2018-04-02T08:21:18.756Z,18.8
2018-04-02T08:22:59.463Z,18.6
2018-04-02T08:23:48.248Z,18.6
2018-04-02T08:24:37.706Z,18.6
2018-04-02T08:25:28.932Z,18.5
2018-04-02T08:26:19.650Z,18.4
2018-04-02T08:27:09.096Z,18.4
2018-04-02T08:27:58.781Z,18.3
2018-04-02T08:28:48.786Z,18.3
2018-04-02T08:29:39.267Z,18.3
2018-04-02T08:30:28.170Z,18.3
2018-04-02T08:31:18.910Z,18.2
2018-04-02T08:32:09.328Z,18.1
2018-04-02T08:32:59.864Z,18.1
2018-04-02T08:33:50.174Z,18.1
2018-04-02T08:34:38.448Z,18.1
2018-04-02T08:35:29.323Z,18
2018-04-02T08:36:19.396Z,17.9
2018-04-02T08:37:10.051Z,17.9
2018-04-02T08:38:00.317Z,17.9
2018-04-02T08:38:50.813Z,17.8
2018-04-02T08:39:40.097Z,17.8
2018-04-02T08:40:30.282Z,17.8
2018-04-02T08:41:19.656Z,17.7
2018-04-02T08:42:10.318Z,17.7
2018-04-02T08:42:59.863Z,17.6
2018-04-02T08:43:49.118Z,17.6
2018-04-02T08:44:38.753Z,17.6
2018-04-02T08:45:29.711Z,17.5
2018-04-02T08:46:20.809Z,17.5
2018-04-02T08:47:10.126Z,17.4
2018-04-02T08:47:59.711Z,17.4
2018-04-02T08:48:50.189Z,17.4
2018-04-02T08:49:39.748Z,17.3
2018-04-02T08:50:30.021Z,17.3
2018-04-02T08:51:20.518Z,17.3
2018-04-02T08:52:09.528Z,17.3
2018-04-02T08:53:01.896Z,17.2
2018-04-02T08:53:51.036Z,17.2
2018-04-02T08:54:40.243Z,17.1
2018-04-02T08:55:30.760Z,17.1
2018-04-02T08:56:21.343Z,17.1
2018-04-02T08:57:12.327Z,17.1
2018-04-02T08:58:50.330Z,16.9
2018-04-02T08:59:41.300Z,16.9
2018-04-02T09:00:30.576Z,16.9
2018-04-02T09:01:21.170Z,16.9
2018-04-02T09:02:10.850Z,16.9
2018-04-02T09:03:00.352Z,16.9
2018-04-02T09:03:51.380Z,16.8
2018-04-02T09:04:41.238Z,16.8
2018-04-02T09:05:32.124Z,16.8
2018-04-02T09:06:21.983Z,16.8
2018-04-02T09:07:11.678Z,16.7
2018-04-02T09:08:02.062Z,16.7
2018-04-02T09:08:51.784Z,16.6
2018-04-02T09:09:41.497Z,16.6
2018-04-02T09:10:31.773Z,16.6
2018-04-02T09:11:22.029Z,16.6
2018-04-02T09:12:12.111Z,16.6
2018-04-02T09:13:02.262Z,16.5
2018-04-02T09:13:52.534Z,16.5
2018-04-02T09:14:40.307Z,16.4
2018-04-02T09:15:33.004Z,16.4
2018-04-02T09:16:22.532Z,16.4
2018-04-02T09:17:12.467Z,16.4
2018-04-02T09:18:02.714Z,16.4
2018-04-02T09:18:53.236Z,16.3
2018-04-02T09:19:42.254Z,16.3
2018-04-02T09:20:32.494Z,16.3
2018-04-02T09:21:23.116Z,16.3
2018-04-02T09:22:12.305Z,16.3
2018-04-02T09:23:02.749Z,16.2
2018-04-02T09:23:53.332Z,16.2
2018-04-02T09:24:43.011Z,16.2
2018-04-02T09:25:32.400Z,16.1
2018-04-02T09:26:24.264Z,16.1
2018-04-02T09:27:12.504Z,16.1
2018-04-02T09:28:01.709Z,16.1
2018-04-02T09:28:51.254Z,16.1
2018-04-02T09:29:43.106Z,16
2018-04-02T09:30:33.426Z,16
2018-04-02T09:31:23.133Z,16
2018-04-02T09:32:12.878Z,15.9
2018-04-02T09:33:04.141Z,15.9
2018-04-02T09:33:53.965Z,15.9
2018-04-02T09:34:44.653Z,15.9
2018-04-02T09:35:33.995Z,15.9
2018-04-02T09:36:23.548Z,15.8
2018-04-02T09:37:14.061Z,15.8
2018-04-02T09:38:04.271Z,15.8
2018-04-02T09:38:54.630Z,15.8
2018-04-02T09:39:44.693Z,15.8
2018-04-02T09:40:34.635Z,15.8
2018-04-02T09:41:23.837Z,15.8
2018-04-02T09:42:15.028Z,15.7
2018-04-02T09:43:06.013Z,15.7
2018-04-02T09:43:56.076Z,15.7
2018-04-02T09:44:45.846Z,15.6
2018-04-02T09:45:35.693Z,15.6
2018-04-02T09:46:25.650Z,15.6
2018-04-02T09:47:16.287Z,15.6
2018-04-02T09:48:06.669Z,15.6
2018-04-02T09:48:56.697Z,15.6
2018-04-02T09:49:46.484Z,15.6
2018-04-02T09:50:36.516Z,15.6
2018-04-02T09:51:26.599Z,15.5
2018-04-02T09:52:16.917Z,15.5
2018-04-02T09:53:06.719Z,15.5
2018-04-02T09:53:56.785Z,15.4
2018-04-02T09:54:47.124Z,15.4
2018-04-02T09:55:36.621Z,15.4
2018-04-02T09:56:26.974Z,15.4
2018-04-02T09:57:17.307Z,15.4
2018-04-02T09:58:06.799Z,15.4
2018-04-02T09:58:56.836Z,15.4
2018-04-02T09:59:46.666Z,15.4
2018-04-02T10:00:37.594Z,15.4
2018-04-02T10:01:27.606Z,15.3
2018-04-02T10:02:17.391Z,15.3
2018-04-02T10:03:06.866Z,15.3
2018-04-02T10:03:57.202Z,15.3
2018-04-02T10:04:50.830Z,15.3
2018-04-02T10:05:36.486Z,15.3
2018-04-02T10:06:28.551Z,15.3
2018-04-02T10:07:17.806Z,15.2
2018-04-02T10:08:07.561Z,15.2
2018-04-02T10:08:57.843Z,15.2
2018-04-02T10:09:47.409Z,15.2
2018-04-02T10:10:37.970Z,15.1
2018-04-02T10:11:28.316Z,15.1
2018-04-02T10:12:17.593Z,15.1
2018-04-02T10:13:07.896Z,15.1
2018-04-02T10:13:58.302Z,15.1
2018-04-02T10:14:48.053Z,15.1
2018-04-02T10:15:38.633Z,15.1
2018-04-02T10:16:28.443Z,15.1
2018-04-02T10:17:17.903Z,15.1
2018-04-02T10:18:08.293Z,15
2018-04-02T10:18:58.584Z,15.1
2018-04-02T10:19:47.538Z,15
2018-04-02T10:20:37.035Z,15
2018-04-02T10:21:27.368Z,15
2018-04-02T10:22:16.999Z,14.9
2018-04-02T10:23:06.852Z,14.9
2018-04-02T10:23:58.352Z,14.9
2018-04-02T10:24:47.513Z,14.9
2018-04-02T10:25:36.923Z,14.9
2018-04-02T10:26:27.290Z,14.9
2018-04-02T10:27:17.583Z,14.9
2018-04-02T10:28:08.332Z,14.9
2018-04-02T10:28:57.825Z,14.9
2018-04-02T10:29:48.171Z,14.9
2018-04-02T10:30:36.568Z,14.9
2018-04-02T10:31:27.958Z,14.8
2018-04-02T10:32:17.802Z,14.8
2018-04-02T10:33:08.972Z,14.8
2018-04-02T10:33:58.604Z,14.8
2018-04-02T10:34:49.029Z,14.8
2018-04-02T10:35:37.493Z,14.8
2018-04-02T10:36:26.920Z,14.8
2018-04-02T10:37:17.573Z,14.8
2018-04-02T10:38:07.523Z,14.8
2018-04-02T10:38:58.461Z,14.8
2018-04-02T10:39:48.096Z,14.8
2018-04-02T10:40:38.424Z,14.8
2018-04-02T10:41:28.829Z,14.7
2018-04-02T10:42:18.398Z,14.7
2018-04-02T10:43:08.496Z,14.7
2018-04-02T10:43:58.453Z,14.7
2018-04-02T10:44:49.200Z,14.6
2018-04-02T10:45:37.689Z,14.6
2018-04-02T10:46:28.996Z,14.6
2018-04-02T10:47:18.691Z,14.7
2018-04-02T10:48:08.875Z,14.6
2018-04-02T10:48:59.283Z,14.6
2018-04-02T10:49:48.086Z,14.6
2018-04-02T10:50:38.923Z,14.6
2018-04-02T10:51:30.112Z,14.6
2018-04-02T10:52:19.905Z,14.6
2018-04-02T10:53:09.532Z,14.6
2018-04-02T10:53:59.535Z,14.6
2018-04-02T10:54:50.143Z,14.6
2018-04-02T10:55:38.900Z,14.6
2018-04-02T10:56:30.138Z,14.6
2018-04-02T10:57:19.437Z,14.5
2018-04-02T10:58:08.683Z,14.5
2018-04-02T10:59:00.212Z,14.6
2018-04-02T10:59:51.667Z,14.5
2018-04-02T11:00:38.942Z,14.5
2018-04-02T11:01:30.535Z,14.5
2018-04-02T11:02:20.111Z,14.5
2018-04-02T11:03:10.568Z,14.5
2018-04-02T11:04:00.534Z,14.4
2018-04-02T11:04:50.380Z,14.4
2018-04-02T11:05:41.095Z,14.4
2018-04-02T11:06:30.235Z,14.4
2018-04-02T11:07:19.188Z,14.4
2018-04-02T11:08:10.510Z,14.4
2018-04-02T11:09:00.210Z,14.4
2018-04-02T11:09:49.653Z,14.4
2018-04-02T11:10:41.114Z,14.4
2018-04-02T11:11:31.537Z,14.4
2018-04-02T11:12:19.680Z,14.4
2018-04-02T11:13:10.410Z,14.4
2018-04-02T11:13:59.932Z,14.4
2018-04-02T11:14:50.237Z,14.4
2018-04-02T11:15:39.845Z,14.4
2018-04-02T11:16:30.708Z,14.4
2018-04-02T11:17:19.602Z,14.3
2018-04-02T11:18:11.230Z,14.3